createdAt,value
2022-08-12T00:00:12.586Z,5.97
2022-08-12T00:03:00.238Z,8.27
2022-08-12T00:06:04.882Z,5.78
2022-08-12T00:11:40.689Z,7.47
2022-08-12T00:14:28.350Z,4.78
2022-08-12T00:17:16.001Z,7.45
2022-08-12T00:20:03.261Z,9.63
2022-08-12T00:22:58.825Z,8.60
2022-08-12T00:26:21.159Z,6.13
2022-08-12T00:29:13.777Z,6.00
2022-08-12T00:32:02.058Z,6.05
2022-08-12T00:34:51.993Z,5.60
2022-08-12T00:37:41.960Z,8.75
2022-08-12T00:40:32.131Z,6.65
2022-08-12T00:43:02.192Z,8.45
2022-08-12T00:45:51.667Z,5.18
2022-08-12T00:48:21.884Z,9.95
2022-08-12T00:50:56.892Z,6.15
2022-08-12T00:53:30.002Z,10.73
2022-08-12T00:56:01.254Z,6.68
2022-08-12T00:58:32.453Z,12.55
2022-08-12T01:01:05.410Z,10.25
2022-08-12T01:03:55.550Z,5.40
2022-08-12T01:06:51.064Z,10.35
2022-08-12T01:09:42.278Z,7.25
2022-08-12T01:12:12.658Z,4.68
2022-08-12T01:14:44.596Z,8.90
2022-08-12T01:17:14.410Z,4.15
2022-08-12T01:19:44.276Z,4.68
2022-08-12T01:22:36.450Z,6.43
2022-08-12T01:25:21.171Z,8.80
2022-08-12T01:27:54.363Z,6.70
2022-08-12T01:30:27.523Z,8.90
2022-08-12T01:33:00.488Z,6.23
2022-08-12T01:35:31.997Z,4.85
2022-08-12T01:38:09.919Z,4.63
2022-08-12T01:40:46.828Z,7.75
2022-08-12T01:43:25.905Z,4.00
2022-08-12T01:46:03.198Z,7.18
2022-08-12T01:49:01.593Z,6.05
2022-08-12T01:52:15.142Z,7.00
2022-08-12T01:54:41.353Z,5.28
2022-08-12T01:57:59.518Z,3.88
2022-08-12T02:00:18.468Z,6.43
2022-08-12T02:02:59.234Z,8.70
2022-08-12T02:06:11.157Z,7.20
2022-08-12T02:09:22.856Z,4.60
2022-08-12T02:12:05.371Z,4.80
2022-08-12T02:14:57.988Z,4.22
2022-08-12T02:18:00.945Z,6.97
2022-08-12T02:20:51.518Z,8.63
2022-08-12T02:23:27.926Z,6.38
2022-08-12T02:26:11.370Z,6.15
2022-08-12T02:28:41.085Z,5.90
2022-08-12T02:31:12.261Z,8.65
2022-08-12T02:33:42.804Z,6.55
2022-08-12T02:36:12.387Z,6.30
2022-08-12T02:38:45.139Z,4.82
2022-08-12T02:41:18.062Z,5.20
2022-08-12T02:43:52.879Z,7.72
2022-08-12T02:46:29.864Z,9.15
2022-08-12T02:49:37.211Z,2.90
2022-08-12T02:52:08.828Z,6.22
2022-08-12T02:54:40.219Z,3.38
2022-08-12T02:57:09.417Z,5.47
2022-08-12T02:59:38.960Z,8.32
2022-08-12T03:02:14.255Z,4.45
2022-08-12T03:04:49.348Z,6.57
2022-08-12T03:07:30.995Z,9.38
2022-08-12T03:10:26.014Z,6.28
2022-08-12T03:13:09.286Z,15.27
2022-08-12T03:15:38.925Z,9.43
2022-08-12T03:18:34.763Z,6.45
2022-08-12T03:21:05.186Z,2.92
2022-08-12T03:23:34.738Z,6.53
2022-08-12T03:26:05.050Z,5.38
2022-08-12T03:28:52.529Z,8.48
2022-08-12T03:31:34.820Z,3.47
2022-08-12T03:34:10.136Z,5.88
2022-08-12T03:36:41.842Z,4.97
2022-08-12T03:39:19.678Z,7.75
2022-08-12T03:42:17.088Z,4.95
2022-08-12T03:45:29.293Z,8.35
2022-08-12T03:48:18.750Z,4.07
2022-08-12T03:51:08.026Z,5.20
2022-08-12T03:53:56.255Z,2.92
2022-08-12T03:56:43.768Z,5.95
2022-08-12T03:59:31.490Z,5.45
2022-08-12T04:02:01.440Z,9.43
2022-08-12T04:04:37.324Z,4.43
2022-08-12T04:07:11.895Z,4.25
2022-08-12T04:09:43.747Z,5.45
2022-08-12T04:12:33.301Z,6.10
2022-08-12T04:15:04.147Z,5.78
2022-08-12T04:17:35.062Z,2.97
2022-08-12T04:20:05.091Z,3.42
2022-08-12T04:22:35.265Z,4.32
2022-08-12T04:25:05.372Z,4.63
2022-08-12T04:27:36.934Z,3.55
2022-08-12T04:30:31.277Z,4.25
2022-08-12T04:32:59.327Z,6.45
2022-08-12T04:35:29.399Z,4.47
2022-08-12T04:38:01.155Z,6.25
2022-08-12T04:40:35.041Z,7.18
2022-08-12T04:45:35.768Z,5.55
2022-08-12T04:48:07.828Z,5.47
2022-08-12T04:50:37.500Z,5.20
2022-08-12T04:53:09.282Z,8.10
2022-08-12T04:55:43.875Z,4.68
2022-08-12T04:58:15.126Z,3.25
2022-08-12T05:00:58.517Z,3.75
2022-08-12T05:03:28.915Z,7.30
2022-08-12T05:06:18.920Z,5.63
2022-08-12T05:09:02.677Z,6.55
2022-08-12T05:11:53.768Z,4.50
2022-08-12T05:14:25.113Z,7.00
2022-08-12T05:16:54.605Z,5.07
2022-08-12T05:19:23.772Z,4.55
2022-08-12T05:21:53.612Z,3.85
2022-08-12T05:24:23.017Z,7.28
2022-08-12T05:26:53.557Z,5.30
2022-08-12T05:30:07.678Z,6.43
2022-08-12T05:32:12.686Z,6.68
2022-08-12T05:34:41.853Z,6.72
2022-08-12T05:37:11.113Z,7.22
2022-08-12T05:39:40.360Z,7.53
2022-08-12T05:42:12.848Z,6.15
2022-08-12T05:44:42.106Z,9.55
2022-08-12T05:47:13.509Z,5.90
2022-08-12T05:49:43.190Z,6.45
2022-08-12T05:52:12.623Z,3.78
2022-08-12T05:54:57.030Z,4.72
2022-08-12T05:57:27.043Z,6.05
2022-08-12T05:59:56.370Z,5.65
2022-08-12T06:02:27.415Z,6.05
2022-08-12T06:04:58.863Z,6.20
2022-08-12T06:07:59.777Z,10.40
2022-08-12T06:10:31.607Z,5.25
2022-08-12T06:15:33.348Z,18.20
2022-08-12T06:18:14.131Z,19.85
2022-08-12T06:20:52.595Z,5.00
2022-08-12T06:23:23.401Z,6.90
2022-08-12T06:25:52.847Z,5.93
2022-08-12T06:28:22.340Z,6.75
2022-08-12T06:33:59.527Z,5.22
2022-08-12T06:36:34.836Z,8.93
2022-08-12T06:39:04.156Z,5.22
2022-08-12T06:42:32.550Z,3.90
2022-08-12T06:45:02.156Z,5.60
2022-08-12T06:47:33.773Z,12.93
2022-08-12T06:50:04.642Z,4.10
2022-08-12T06:52:34.547Z,5.80
2022-08-12T06:55:03.622Z,4.22
2022-08-12T06:58:01.759Z,7.40
2022-08-12T07:00:32.588Z,4.95
2022-08-12T07:03:16.566Z,4.80
2022-08-12T07:05:52.258Z,3.15
2022-08-12T07:08:21.687Z,3.50
2022-08-12T07:11:00.158Z,9.63
2022-08-12T07:14:02.418Z,5.30
2022-08-12T07:16:53.264Z,6.13
2022-08-12T07:19:22.901Z,5.18
2022-08-12T07:22:01.824Z,3.55
2022-08-12T07:24:32.295Z,8.43
2022-08-12T07:27:01.482Z,3.92
2022-08-12T07:30:00.013Z,4.53
2022-08-12T07:32:21.177Z,3.20
2022-08-12T07:34:50.877Z,4.85
2022-08-12T07:37:19.936Z,5.68
2022-08-12T07:39:50.855Z,8.10
2022-08-12T07:42:30.645Z,6.45
2022-08-12T07:45:00.619Z,11.85
2022-08-12T07:47:30.031Z,6.25
2022-08-12T07:50:04.910Z,5.68
2022-08-12T07:52:37.166Z,20.23
2022-08-12T07:55:07.615Z,8.52
2022-08-12T07:57:49.543Z,6.97
2022-08-12T08:00:19.469Z,5.28
2022-08-12T08:02:50.352Z,4.72
2022-08-12T08:05:20.595Z,3.78
2022-08-12T08:07:50.082Z,6.05
2022-08-12T08:10:19.558Z,5.60
2022-08-12T08:12:59.900Z,2.53
2022-08-12T08:16:01.838Z,4.25
2022-08-12T08:18:26.248Z,3.42
2022-08-12T08:20:58.057Z,6.85
2022-08-12T08:23:56.404Z,8.45
2022-08-12T08:26:28.041Z,4.35
2022-08-12T08:28:57.901Z,7.60
2022-08-12T08:31:27.370Z,7.53
2022-08-12T08:34:09.460Z,19.25
2022-08-12T08:36:44.806Z,14.68
2022-08-12T08:39:21.819Z,13.77
2022-08-12T08:42:17.838Z,16.10
2022-08-12T08:44:58.078Z,8.68
2022-08-12T08:47:28.634Z,6.03
2022-08-12T08:50:02.142Z,7.20
2022-08-12T08:52:39.037Z,6.90
2022-08-12T08:55:20.956Z,5.03
2022-08-12T08:57:56.497Z,3.25
2022-08-12T09:00:26.583Z,9.10
2022-08-12T09:02:58.617Z,6.50
2022-08-12T09:05:43.142Z,4.25
2022-08-12T09:08:23.205Z,3.92
2022-08-12T09:12:06.709Z,4.18
2022-08-12T09:14:10.554Z,28.27
2022-08-12T09:16:42.883Z,6.35
2022-08-12T09:19:27.562Z,14.45
2022-08-12T09:24:53.785Z,10.15
2022-08-12T09:27:57.703Z,10.52
2022-08-12T09:30:17.092Z,6.97
2022-08-12T09:33:05.035Z,12.65
2022-08-12T09:36:03.338Z,9.15
2022-08-12T09:38:35.508Z,4.13
2022-08-12T09:42:34.990Z,6.38
2022-08-12T09:44:38.356Z,6.78
2022-08-12T09:47:03.240Z,2.00
2022-08-12T09:49:42.474Z,4.90
2022-08-12T09:52:16.688Z,7.43
2022-08-12T09:54:50.158Z,7.65
2022-08-12T09:58:07.419Z,6.38
2022-08-12T10:00:23.291Z,4.13
2022-08-12T10:03:31.831Z,3.25
2022-08-12T10:06:27.357Z,11.38
2022-08-12T10:08:53.500Z,5.00
2022-08-12T10:12:07.800Z,10.40
2022-08-12T10:14:34.267Z,6.55
2022-08-12T10:17:08.678Z,8.88
2022-08-12T10:19:41.267Z,5.97
2022-08-12T10:22:40.315Z,9.73
2022-08-12T10:26:38.185Z,11.95
2022-08-12T10:28:40.415Z,6.13
2022-08-12T10:31:16.557Z,6.53
2022-08-12T10:33:55.577Z,8.55
2022-08-12T10:36:43.129Z,9.95
2022-08-12T10:40:05.628Z,5.72
2022-08-12T10:42:35.156Z,6.13
2022-08-12T10:45:08.181Z,7.88
2022-08-12T10:48:07.145Z,5.33
2022-08-12T10:50:58.410Z,6.53
2022-08-12T10:53:21.473Z,6.53
2022-08-12T10:56:12.613Z,6.00
2022-08-12T10:58:46.212Z,9.93
2022-08-12T11:01:49.574Z,8.65
2022-08-12T11:04:25.349Z,8.32
2022-08-12T11:07:07.910Z,5.60
2022-08-12T11:09:55.835Z,5.03
2022-08-12T11:12:55.865Z,6.70
2022-08-12T11:16:02.537Z,7.47
2022-08-12T11:18:18.271Z,5.90
2022-08-12T11:20:50.567Z,9.20
2022-08-12T11:23:35.966Z,6.63
2022-08-12T11:26:08.494Z,8.52
2022-08-12T11:28:38.940Z,9.27
2022-08-12T11:31:14.414Z,11.02
2022-08-12T11:34:05.906Z,4.78
2022-08-12T11:36:34.605Z,12.15
2022-08-12T11:39:11.348Z,8.93
2022-08-12T11:41:43.022Z,7.82
2022-08-12T11:44:37.132Z,11.25
2022-08-12T11:47:01.964Z,6.20
2022-08-12T11:49:32.781Z,11.65
2022-08-12T11:52:28.014Z,11.88
2022-08-12T11:54:55.768Z,9.48
2022-08-12T11:58:09.153Z,10.98
2022-08-12T12:03:04.603Z,14.30
2022-08-12T12:05:39.736Z,17.02
2022-08-12T12:08:38.743Z,10.60
2022-08-12T12:11:00.729Z,15.50
2022-08-12T12:14:07.709Z,11.98
2022-08-12T12:16:19.539Z,10.65
2022-08-12T12:18:49.109Z,8.57
2022-08-12T12:21:18.526Z,10.80
2022-08-12T12:24:08.266Z,14.23
2022-08-12T12:26:38.388Z,14.27
2022-08-12T12:30:05.723Z,14.75
2022-08-12T12:32:10.281Z,13.77
2022-08-12T12:35:14.591Z,15.90
2022-08-12T12:38:03.718Z,16.98
2022-08-12T12:40:20.145Z,17.85
2022-08-12T12:42:55.329Z,28.02
2022-08-12T12:45:33.199Z,28.30
2022-08-12T12:48:08.732Z,15.32
2022-08-12T12:50:51.249Z,13.30
2022-08-12T12:54:06.263Z,17.45
2022-08-12T12:56:34.044Z,22.05
2022-08-12T12:59:07.083Z,34.42
2022-08-12T13:01:56.424Z,33.72
2022-08-12T13:04:25.993Z,37.50
2022-08-12T13:06:56.360Z,51.28
2022-08-12T13:09:25.358Z,49.72
2022-08-12T13:11:56.352Z,58.75
2022-08-12T13:14:31.052Z,53.13
2022-08-12T13:17:06.105Z,46.13
2022-08-12T13:19:46.690Z,40.33
2022-08-12T13:22:21.294Z,28.95
2022-08-12T13:24:57.066Z,30.95
2022-08-12T13:27:36.407Z,27.90
2022-08-12T13:30:11.804Z,18.33
2022-08-12T13:32:57.109Z,16.52
2022-08-12T13:36:03.361Z,17.95
2022-08-12T13:38:34.642Z,19.60
2022-08-12T13:41:11.654Z,16.42
2022-08-12T13:43:41.895Z,16.52
2022-08-12T13:46:15.404Z,17.02
2022-08-12T13:48:45.732Z,17.80
2022-08-12T13:51:24.516Z,22.98
2022-08-12T13:53:57.624Z,19.65
2022-08-12T13:56:34.902Z,13.48
2022-08-12T13:59:11.569Z,13.27
2022-08-12T14:01:42.393Z,20.83
2022-08-12T14:04:12.591Z,20.20
2022-08-12T14:06:44.866Z,20.63
2022-08-12T14:09:17.810Z,16.55
2022-08-12T14:11:58.851Z,14.77
2022-08-12T14:14:34.733Z,14.38
2022-08-12T14:17:10.894Z,16.83
2022-08-12T14:20:01.282Z,15.55
2022-08-12T14:22:31.635Z,14.15
2022-08-12T14:25:02.487Z,11.38
2022-08-12T14:28:06.127Z,13.15
2022-08-12T14:30:28.858Z,11.80
2022-08-12T14:32:59.619Z,10.13
2022-08-12T14:35:29.204Z,14.18
2022-08-12T14:38:17.372Z,13.43
2022-08-12T14:40:53.601Z,14.55
2022-08-12T14:43:25.733Z,15.20
2022-08-12T14:46:05.074Z,11.52
2022-08-12T14:48:35.147Z,12.02
2022-08-12T14:52:43.944Z,17.05
2022-08-12T14:54:55.945Z,15.05
2022-08-12T14:59:56.665Z,12.73
2022-08-12T15:02:30.697Z,14.05
2022-08-12T15:05:04.012Z,12.05
2022-08-12T15:07:49.952Z,14.20
2022-08-12T15:10:32.029Z,14.30
2022-08-12T15:13:08.257Z,11.85
2022-08-12T15:15:45.822Z,12.07
2022-08-12T15:18:22.796Z,12.32
2022-08-12T15:20:56.586Z,12.73
2022-08-12T15:23:29.037Z,9.23
2022-08-12T15:26:04.914Z,7.53
2022-08-12T15:28:36.551Z,9.60
2022-08-12T15:31:21.604Z,9.45
2022-08-12T15:33:58.218Z,8.65
2022-08-12T15:36:54.849Z,9.50
2022-08-12T15:39:17.756Z,10.30
2022-08-12T15:41:49.165Z,13.15
2022-08-12T15:44:41.926Z,12.43
2022-08-12T15:47:09.595Z,10.48
2022-08-12T15:49:54.269Z,11.80
2022-08-12T15:52:28.554Z,7.88
2022-08-12T15:55:06.560Z,7.97
2022-08-12T15:57:55.197Z,12.00
2022-08-12T16:00:34.233Z,16.25
2022-08-12T16:03:14.363Z,9.15
2022-08-12T16:06:13.068Z,9.50
2022-08-12T16:08:46.352Z,10.63
2022-08-12T16:11:16.240Z,10.60
2022-08-12T16:13:49.208Z,11.25
2022-08-12T16:16:24.400Z,13.18
2022-08-12T16:19:04.521Z,9.85
2022-08-12T16:21:52.560Z,18.07
2022-08-12T16:24:27.577Z,14.02
2022-08-12T16:26:56.950Z,11.30
2022-08-12T16:29:38.578Z,10.52
2022-08-12T16:32:31.679Z,13.23
2022-08-12T16:35:02.539Z,10.73
2022-08-12T16:38:24.506Z,9.75
2022-08-12T16:40:24.834Z,11.02
2022-08-12T16:43:02.124Z,10.00
2022-08-12T16:46:32.593Z,8.82
2022-08-12T16:49:13.692Z,11.73
2022-08-12T16:51:47.176Z,12.80
2022-08-12T16:54:19.485Z,10.90
2022-08-12T16:56:54.562Z,8.15
2022-08-12T16:59:24.345Z,12.70
2022-08-12T17:02:11.268Z,11.73
2022-08-12T17:05:18.132Z,11.18
2022-08-12T17:08:08.495Z,11.10
2022-08-12T17:10:57.257Z,10.45
2022-08-12T17:13:53.624Z,9.18
2022-08-12T17:16:41.478Z,8.57
2022-08-12T17:20:30.371Z,13.80
2022-08-12T17:22:37.067Z,11.77
2022-08-12T17:25:14.805Z,11.68
2022-08-12T17:27:57.033Z,10.32
2022-08-12T17:30:28.740Z,12.57
2022-08-12T17:33:06.921Z,10.35
2022-08-12T17:35:43.331Z,10.57
2022-08-12T17:38:22.086Z,11.65
2022-08-12T17:43:54.796Z,11.10
2022-08-12T17:46:12.988Z,14.98
2022-08-12T17:48:55.613Z,9.95
2022-08-12T17:54:05.682Z,9.75
2022-08-12T17:56:42.977Z,11.50
2022-08-12T17:59:13.504Z,11.05
2022-08-12T18:01:55.037Z,6.03
2022-08-12T18:04:35.776Z,10.82
2022-08-12T18:07:08.337Z,8.10
2022-08-12T18:09:39.167Z,8.65
2022-08-12T18:12:33.085Z,13.52
2022-08-12T18:15:08.984Z,8.88
2022-08-12T18:17:40.534Z,8.75
2022-08-12T18:20:15.777Z,9.27
2022-08-12T18:22:47.687Z,10.68
2022-08-12T18:26:15.052Z,6.43
2022-08-12T18:28:29.333Z,8.43
2022-08-12T18:31:03.419Z,9.57
2022-08-12T18:33:43.866Z,10.57
2022-08-12T18:36:22.503Z,11.32
2022-08-12T18:38:59.546Z,14.20
2022-08-12T18:41:34.213Z,8.65
2022-08-12T18:44:12.159Z,11.00
2022-08-12T18:46:56.230Z,7.38
2022-08-12T18:49:34.944Z,9.38
2022-08-12T18:52:11.583Z,8.60
2022-08-12T18:54:52.904Z,10.07
2022-08-12T18:57:45.976Z,6.43
2022-08-12T19:00:22.047Z,8.65
2022-08-12T19:02:54.011Z,13.75
2022-08-12T19:05:52.707Z,9.88
2022-08-12T19:08:16.623Z,9.73
2022-08-12T19:10:50.690Z,10.75
2022-08-12T19:13:40.523Z,9.63
2022-08-12T19:16:13.584Z,8.13
2022-08-12T19:18:45.047Z,10.57
2022-08-12T19:21:16.596Z,9.75
2022-08-12T19:24:06.243Z,7.18
2022-08-12T19:26:37.381Z,8.70
2022-08-12T19:29:08.867Z,10.25
2022-08-12T19:31:57.511Z,12.02
2022-08-12T19:38:06.422Z,8.45
2022-08-12T19:40:33.539Z,10.15
2022-08-12T19:43:22.965Z,8.90
2022-08-12T19:45:56.711Z,7.55
2022-08-12T19:48:32.757Z,10.00
2022-08-12T19:51:09.172Z,7.25
2022-08-12T19:53:57.421Z,12.05
2022-08-12T19:56:29.347Z,11.15
2022-08-12T19:59:20.699Z,9.15
2022-08-12T20:02:02.443Z,7.88
2022-08-12T20:04:41.041Z,7.47
2022-08-12T20:07:23.082Z,7.13
2022-08-12T20:09:55.309Z,7.50
2022-08-12T20:12:32.536Z,10.13
2022-08-12T20:15:06.019Z,6.43
2022-08-12T20:17:36.413Z,8.93
2022-08-12T20:20:27.779Z,7.05
2022-08-12T20:22:58.261Z,8.57
2022-08-12T20:25:28.161Z,8.82
2022-08-12T20:28:16.476Z,10.00
2022-08-12T20:30:53.102Z,8.05
2022-08-12T20:33:32.731Z,7.32
2022-08-12T20:36:40.807Z,6.60
2022-08-12T20:39:17.511Z,9.98
2022-08-12T20:41:59.819Z,8.80
2022-08-12T20:44:29.778Z,9.50
2022-08-12T20:47:18.089Z,8.65
2022-08-12T20:49:56.010Z,6.90
2022-08-12T20:52:34.071Z,8.50
2022-08-12T20:55:03.836Z,8.85
2022-08-12T20:57:37.615Z,5.72
2022-08-12T21:00:17.227Z,10.57
2022-08-12T21:02:50.054Z,11.93
2022-08-12T21:06:10.380Z,7.60
2022-08-12T21:08:27.460Z,8.25
2022-08-12T21:10:58.914Z,9.30
2022-08-12T21:13:38.933Z,10.52
2022-08-12T21:16:10.028Z,9.32
2022-08-12T21:18:39.466Z,6.00
2022-08-12T21:21:23.599Z,9.23
2022-08-12T21:23:56.481Z,10.83
2022-08-12T21:26:30.936Z,10.15
2022-08-12T21:29:04.113Z,11.93
2022-08-12T21:32:39.209Z,12.88
2022-08-12T21:34:29.644Z,30.45
2022-08-12T21:37:26.831Z,15.95
2022-08-12T21:39:56.524Z,7.80
2022-08-12T21:42:27.782Z,8.43
2022-08-12T21:45:47.857Z,8.57
2022-08-12T21:47:46.642Z,6.60
2022-08-12T21:50:22.517Z,9.90
2022-08-12T21:52:58.765Z,8.50
2022-08-12T21:55:40.704Z,6.85
2022-08-12T21:58:22.085Z,7.90
2022-08-12T22:00:53.088Z,9.27
2022-08-12T22:04:04.358Z,8.43
2022-08-12T22:06:42.865Z,15.75
2022-08-12T22:09:15.769Z,12.88
2022-08-12T22:11:56.435Z,14.15
2022-08-12T22:14:31.461Z,7.63
2022-08-12T22:17:05.167Z,7.60
2022-08-12T22:19:35.739Z,7.63
2022-08-12T22:22:06.302Z,12.00
2022-08-12T22:24:36.227Z,10.45
2022-08-12T22:27:31.242Z,11.65
2022-08-12T22:30:19.628Z,8.63
2022-08-12T22:32:51.310Z,7.97
2022-08-12T22:35:55.783Z,10.10
2022-08-12T22:38:29.341Z,8.00
2022-08-12T22:41:08.017Z,11.25
2022-08-12T22:43:59.770Z,8.38
2022-08-12T22:46:52.873Z,10.40
2022-08-12T22:49:49.108Z,10.98
2022-08-12T22:52:23.837Z,6.72
2022-08-12T22:55:02.758Z,8.13
2022-08-12T22:57:49.162Z,12.27
2022-08-12T23:00:27.815Z,9.00
2022-08-12T23:03:03.469Z,7.30
2022-08-12T23:05:57.074Z,10.50
2022-08-12T23:08:30.217Z,9.43
2022-08-12T23:11:05.933Z,12.75
2022-08-12T23:14:01.791Z,9.35
2022-08-12T23:16:34.431Z,14.00
2022-08-12T23:19:22.783Z,10.52
2022-08-12T23:22:37.024Z,10.10
2022-08-12T23:24:57.208Z,14.13
2022-08-12T23:27:52.148Z,7.40
2022-08-12T23:30:31.636Z,7.55
2022-08-12T23:33:13.078Z,8.13
2022-08-12T23:35:45.576Z,8.43
2022-08-12T23:38:31.032Z,11.77
2022-08-12T23:41:03.936Z,10.80
2022-08-12T23:43:42.920Z,12.00
2022-08-12T23:46:20.037Z,17.30
2022-08-12T23:48:50.524Z,13.43
2022-08-12T23:51:32.170Z,12.63
2022-08-12T23:54:08.309Z,8.95
2022-08-12T23:56:40.127Z,10.48
2022-08-12T23:59:14.091Z,7.90
